createdAt,value
2019-02-18T00:01:40.765Z,2.30
2019-02-18T00:04:08.397Z,2.20
2019-02-18T00:06:35.970Z,2.20
2019-02-18T00:09:04.325Z,2.20
2019-02-18T00:11:31.982Z,2.20
2019-02-18T00:13:59.854Z,2.10
2019-02-18T00:16:27.421Z,2.00
2019-02-18T00:18:55.045Z,2.00
2019-02-18T00:21:22.639Z,2.00
2019-02-18T00:23:50.211Z,1.90
2019-02-18T00:26:17.820Z,1.90
2019-02-18T00:28:45.410Z,1.90
2019-02-18T00:31:12.991Z,2.00
2019-02-18T00:33:40.627Z,2.10
2019-02-18T00:36:08.205Z,2.00
2019-02-18T00:38:35.788Z,2.00
2019-02-18T00:41:03.415Z,1.90
2019-02-18T00:43:30.996Z,2.00
2019-02-18T00:45:58.579Z,2.00
2019-02-18T00:48:26.959Z,1.90
2019-02-18T00:50:55.095Z,1.90
2019-02-18T00:53:22.690Z,1.80
2019-02-18T00:55:50.340Z,1.80
2019-02-18T00:58:17.936Z,1.80
2019-02-18T01:00:45.516Z,1.80
2019-02-18T01:03:13.132Z,1.80
2019-02-18T01:05:40.712Z,1.80
2019-02-18T01:08:09.067Z,1.70
2019-02-18T01:10:37.018Z,1.60
2019-02-18T01:13:04.607Z,1.60
2019-02-18T01:15:32.202Z,1.50
2019-02-18T01:17:59.856Z,1.60
2019-02-18T01:20:28.203Z,1.80
2019-02-18T01:22:55.814Z,1.70
2019-02-18T01:25:23.396Z,1.70
2019-02-18T01:27:50.979Z,1.60
2019-02-18T01:30:18.562Z,1.50
2019-02-18T01:32:46.208Z,1.50
2019-02-18T01:35:13.825Z,1.40
2019-02-18T01:37:45.780Z,1.40
2019-02-18T01:40:08.996Z,1.30
2019-02-18T01:42:36.577Z,1.30
2019-02-18T01:45:04.155Z,1.30
2019-02-18T01:47:31.769Z,1.20
2019-02-18T01:49:59.354Z,1.20
2019-02-18T01:52:26.932Z,1.20
2019-02-18T01:54:55.309Z,1.10
2019-02-18T01:57:23.662Z,1.10
2019-02-18T01:59:51.245Z,1.00
2019-02-18T02:02:18.927Z,1.00
2019-02-18T02:04:46.468Z,1.00
2019-02-18T02:07:14.045Z,1.00
2019-02-18T02:09:42.434Z,0.90
2019-02-18T02:12:10.008Z,0.90
2019-02-18T02:14:37.602Z,0.90
2019-02-18T02:17:05.222Z,0.90
2019-02-18T02:19:32.811Z,0.90
2019-02-18T02:22:00.400Z,0.80
2019-02-18T02:24:28.038Z,0.80
2019-02-18T02:26:55.613Z,0.80
2019-02-18T02:29:23.191Z,0.80
2019-02-18T02:31:50.802Z,0.80
2019-02-18T02:34:18.427Z,0.80
2019-02-18T02:36:46.006Z,0.90
2019-02-18T02:39:13.591Z,1.00
2019-02-18T02:41:41.171Z,0.90
2019-02-18T02:44:08.755Z,0.90
2019-02-18T02:46:36.424Z,0.80
2019-02-18T02:49:04.015Z,0.80
2019-02-18T02:51:32.357Z,1.00
2019-02-18T02:53:59.985Z,0.90
2019-02-18T02:56:27.558Z,0.90
2019-02-18T02:58:55.166Z,0.90
2019-02-18T03:01:22.746Z,0.80
2019-02-18T03:03:51.091Z,0.60
2019-02-18T03:06:18.676Z,0.60
2019-02-18T03:08:47.078Z,0.50
2019-02-18T03:11:14.669Z,0.50
2019-02-18T03:13:42.244Z,0.50
2019-02-18T03:16:10.230Z,0.50
2019-02-18T03:18:37.810Z,0.50
2019-02-18T03:21:06.162Z,0.60
2019-02-18T03:23:33.777Z,0.60
2019-02-18T03:26:01.371Z,0.70
2019-02-18T03:28:34.864Z,0.80
2019-02-18T03:31:02.492Z,0.80
2019-02-18T03:33:39.114Z,0.70
2019-02-18T03:36:06.722Z,0.70
2019-02-18T03:38:35.071Z,0.60
2019-02-18T03:41:03.590Z,0.50
2019-02-18T03:43:31.039Z,0.60
2019-02-18T03:45:59.383Z,0.60
2019-02-18T03:48:26.970Z,0.60
2019-02-18T03:50:55.142Z,0.50
2019-02-18T03:53:22.719Z,0.40
2019-02-18T03:55:51.076Z,0.40
2019-02-18T03:58:18.695Z,0.30
2019-02-18T04:00:46.289Z,0.50
2019-02-18T04:03:13.869Z,0.50
2019-02-18T04:05:41.494Z,0.50
2019-02-18T04:08:09.075Z,0.40
2019-02-18T04:10:36.665Z,0.40
2019-02-18T04:13:07.192Z,0.50
2019-02-18T04:15:35.323Z,0.50
2019-02-18T04:18:02.906Z,0.70
2019-02-18T04:20:30.529Z,0.80
2019-02-18T04:22:58.113Z,1.00
2019-02-18T04:25:25.703Z,0.90
2019-02-18T04:27:53.339Z,0.80
2019-02-18T04:30:20.915Z,0.70
2019-02-18T04:32:48.491Z,0.60
2019-02-18T04:35:16.136Z,0.50
2019-02-18T04:37:43.712Z,0.40
2019-02-18T04:40:11.303Z,0.40
2019-02-18T04:42:38.921Z,0.30
2019-02-18T04:45:09.450Z,0.20
2019-02-18T04:47:37.025Z,0.20
2019-02-18T04:50:04.631Z,0.30
2019-02-18T04:52:32.219Z,0.30
2019-02-18T04:54:59.802Z,0.20
2019-02-18T04:57:27.857Z,0.20
2019-02-18T04:59:55.440Z,0.10
2019-02-18T05:02:23.014Z,0.10
2019-02-18T05:04:50.638Z,0.10
2019-02-18T05:07:18.211Z,0.20
2019-02-18T05:09:45.897Z,0.20
2019-02-18T05:12:15.554Z,0.20
2019-02-18T05:14:41.709Z,0.20
2019-02-18T05:17:09.307Z,0.10
2019-02-18T05:19:36.937Z,0.00
2019-02-18T05:22:04.515Z,0.00
2019-02-18T05:24:32.104Z,-0.10
2019-02-18T05:27:00.494Z,0.00
2019-02-18T05:29:28.074Z,0.00
2019-02-18T05:31:55.664Z,0.20
2019-02-18T05:34:23.285Z,0.10
2019-02-18T05:36:50.863Z,0.00
2019-02-18T05:39:18.753Z,0.00
2019-02-18T05:41:46.101Z,-0.10
2019-02-18T05:44:13.686Z,-0.20
2019-02-18T05:46:41.264Z,-0.20
2019-02-18T05:49:09.677Z,-0.30
2019-02-18T05:51:37.283Z,-0.30
2019-02-18T05:54:04.879Z,-0.30
2019-02-18T05:56:32.506Z,-0.30
2019-02-18T05:59:00.090Z,-0.30
2019-02-18T06:01:27.736Z,-0.40
2019-02-18T06:03:55.330Z,-0.40
2019-02-18T06:06:23.680Z,-0.40
2019-02-18T06:08:51.298Z,-0.40
2019-02-18T06:11:18.912Z,-0.40
2019-02-18T06:13:46.506Z,-0.50
2019-02-18T06:16:14.891Z,-0.50
2019-02-18T06:18:42.490Z,-0.50
2019-02-18T06:21:10.089Z,-0.60
2019-02-18T06:23:37.674Z,-0.60
2019-02-18T06:26:05.313Z,-0.60
2019-02-18T06:28:32.891Z,-0.60
2019-02-18T06:31:01.245Z,-0.50
2019-02-18T06:33:28.869Z,-0.50
2019-02-18T06:35:56.474Z,-0.50
2019-02-18T06:38:24.077Z,-0.30
2019-02-18T06:40:51.700Z,-0.30
2019-02-18T06:43:19.347Z,-0.30
2019-02-18T06:45:52.832Z,-0.40
2019-02-18T06:48:20.723Z,-0.40
2019-02-18T06:50:48.313Z,-0.30
2019-02-18T06:53:15.921Z,-0.30
2019-02-18T06:55:44.127Z,-0.20
2019-02-18T06:58:17.216Z,0.00
2019-02-18T07:00:44.798Z,0.20
2019-02-18T07:03:31.539Z,0.10
2019-02-18T07:06:04.908Z,0.00
2019-02-18T07:08:41.964Z,-0.20
2019-02-18T07:11:09.560Z,-0.20
2019-02-18T07:13:37.935Z,-0.10
2019-02-18T07:16:06.675Z,-0.10
2019-02-18T07:21:12.803Z,-0.20
2019-02-18T07:23:40.351Z,-0.10
2019-02-18T07:26:07.934Z,-0.20
2019-02-18T07:28:36.339Z,-0.20
2019-02-18T07:31:03.933Z,-0.20
2019-02-18T07:33:31.518Z,-0.20
2019-02-18T07:35:59.916Z,0.00
2019-02-18T07:38:27.635Z,-0.10
2019-02-18T07:40:55.086Z,0.00
2019-02-18T07:43:23.267Z,0.10
2019-02-18T07:45:50.295Z,0.10
2019-02-18T07:48:17.876Z,0.30
2019-02-18T07:50:45.961Z,0.40
2019-02-18T07:53:13.545Z,0.40
2019-02-18T07:55:41.897Z,0.50
2019-02-18T07:58:09.523Z,0.50
2019-02-18T08:00:37.103Z,0.50
2019-02-18T08:03:04.681Z,0.60
2019-02-18T08:05:32.344Z,0.60
2019-02-18T08:07:59.928Z,0.60
2019-02-18T08:10:27.513Z,0.70
2019-02-18T08:12:55.136Z,0.90
2019-02-18T08:15:22.719Z,1.00
2019-02-18T08:17:51.069Z,1.10
2019-02-18T08:20:19.055Z,1.10
2019-02-18T08:22:46.644Z,1.10
2019-02-18T08:25:14.220Z,1.10
2019-02-18T08:27:41.860Z,1.10
2019-02-18T08:30:09.438Z,1.20
2019-02-18T08:32:37.033Z,1.30
2019-02-18T08:35:04.749Z,1.30
2019-02-18T08:37:32.328Z,1.30
2019-02-18T08:39:59.909Z,1.40
2019-02-18T08:42:27.549Z,1.50
2019-02-18T08:44:55.139Z,1.50
2019-02-18T08:47:22.722Z,1.60
2019-02-18T08:49:50.402Z,1.60
2019-02-18T08:52:17.985Z,1.70
2019-02-18T08:54:56.055Z,2.00
2019-02-18T08:57:14.836Z,2.00
2019-02-18T08:59:43.186Z,2.10
2019-02-18T09:02:10.759Z,2.00
2019-02-18T09:04:38.391Z,2.10
2019-02-18T09:07:05.968Z,2.20
2019-02-18T09:09:33.553Z,2.30
2019-02-18T09:12:01.723Z,2.40
2019-02-18T09:14:29.313Z,2.60
2019-02-18T09:16:56.895Z,2.70
2019-02-18T09:19:24.523Z,2.80
2019-02-18T09:21:59.312Z,2.90
2019-02-18T09:24:29.745Z,2.90
2019-02-18T09:26:57.323Z,3.00
2019-02-18T09:29:24.903Z,3.10
2019-02-18T09:31:52.963Z,3.20
2019-02-18T09:34:20.551Z,3.30
2019-02-18T09:36:48.895Z,3.70
2019-02-18T09:39:16.990Z,3.70
2019-02-18T09:41:44.565Z,4.00
2019-02-18T09:44:12.915Z,4.40
2019-02-18T09:46:40.563Z,4.40
2019-02-18T09:49:08.122Z,4.60
2019-02-18T09:51:35.702Z,4.60
2019-02-18T09:54:03.336Z,4.70
2019-02-18T09:56:30.930Z,4.80
2019-02-18T09:58:58.513Z,5.00
2019-02-18T10:01:26.937Z,5.30
2019-02-18T10:03:54.511Z,5.30
2019-02-18T10:06:22.100Z,5.40
2019-02-18T10:08:50.061Z,5.50
2019-02-18T10:11:17.676Z,5.60
2019-02-18T10:13:45.994Z,5.90
2019-02-18T10:16:13.616Z,5.80
2019-02-18T10:18:41.208Z,6.00
2019-02-18T10:21:08.804Z,6.20
2019-02-18T10:23:37.194Z,6.50
2019-02-18T10:26:05.553Z,6.70
2019-02-18T10:28:33.132Z,6.70
2019-02-18T10:31:01.550Z,6.90
2019-02-18T10:33:29.131Z,6.90
2019-02-18T10:35:56.863Z,7.00
2019-02-18T10:38:24.544Z,7.20
2019-02-18T10:40:52.131Z,7.30
2019-02-18T10:43:19.712Z,7.40
2019-02-18T10:45:48.329Z,7.60
2019-02-18T10:48:16.688Z,8.00
2019-02-18T10:50:45.046Z,8.20
2019-02-18T10:53:12.674Z,8.20
2019-02-18T10:55:40.256Z,8.40
2019-02-18T10:58:07.860Z,8.50
2019-02-18T11:00:37.053Z,8.80
2019-02-18T11:03:05.402Z,9.00
2019-02-18T11:05:32.985Z,9.00
2019-02-18T11:08:00.951Z,9.20
2019-02-18T11:10:28.542Z,9.40
2019-02-18T11:12:59.338Z,9.50
2019-02-18T11:15:26.978Z,9.70
2019-02-18T11:17:54.546Z,9.80
2019-02-18T11:20:22.127Z,10.00
2019-02-18T11:22:50.303Z,10.10
2019-02-18T11:25:17.887Z,10.30
2019-02-18T11:27:46.243Z,10.40
2019-02-18T11:30:13.946Z,10.40
2019-02-18T11:32:41.525Z,10.50
2019-02-18T11:35:09.118Z,10.70
2019-02-18T11:37:36.786Z,10.80
2019-02-18T11:40:04.375Z,10.90
2019-02-18T11:42:33.440Z,10.90
2019-02-18T11:45:01.143Z,11.10
2019-02-18T11:47:29.495Z,11.30
2019-02-18T11:49:57.113Z,11.30
2019-02-18T11:52:25.559Z,11.60
2019-02-18T11:54:54.179Z,11.50
2019-02-18T11:57:21.823Z,11.60
2019-02-18T11:59:49.480Z,11.60
2019-02-18T12:02:17.894Z,11.80
2019-02-18T12:04:45.486Z,11.70
2019-02-18T12:07:14.189Z,11.80
2019-02-18T12:09:41.768Z,11.80
2019-02-18T12:12:10.122Z,11.90
2019-02-18T12:14:37.753Z,11.90
2019-02-18T12:17:05.327Z,11.90
2019-02-18T12:19:32.911Z,12.10
2019-02-18T12:22:00.983Z,12.10
2019-02-18T12:24:28.566Z,12.20
2019-02-18T12:26:56.159Z,12.20
2019-02-18T12:29:26.626Z,12.30
2019-02-18T12:31:52.148Z,12.40
2019-02-18T12:34:19.728Z,12.40
2019-02-18T12:36:48.600Z,12.50
2019-02-18T12:39:16.189Z,12.50
2019-02-18T12:41:48.772Z,12.60
2019-02-18T12:44:11.402Z,12.60
2019-02-18T12:46:39.755Z,12.90
2019-02-18T12:49:07.340Z,12.90
2019-02-18T12:51:34.985Z,13.00
2019-02-18T12:54:05.085Z,13.00
2019-02-18T12:56:30.176Z,13.00
2019-02-18T12:58:57.797Z,13.00
2019-02-18T13:01:27.780Z,13.10
2019-02-18T13:03:53.734Z,13.10
2019-02-18T13:06:22.139Z,13.30
2019-02-18T13:08:49.727Z,13.30
2019-02-18T13:11:17.301Z,13.40
2019-02-18T13:13:46.130Z,13.40
2019-02-18T13:16:13.660Z,13.40
2019-02-18T13:18:41.233Z,13.50
2019-02-18T13:21:08.918Z,13.50
2019-02-18T13:23:37.270Z,13.60
2019-02-18T13:26:04.890Z,13.50
2019-02-18T13:28:33.331Z,13.70
2019-02-18T13:31:00.904Z,13.70
2019-02-18T13:33:29.266Z,13.80
2019-02-18T13:35:57.433Z,13.70
2019-02-18T13:38:25.011Z,13.80
2019-02-18T13:40:52.656Z,13.90
2019-02-18T13:43:21.149Z,13.90
2019-02-18T13:45:48.732Z,13.90
2019-02-18T13:48:17.095Z,14.00
2019-02-18T13:50:44.726Z,14.00
2019-02-18T13:53:12.306Z,14.00
2019-02-18T13:55:39.908Z,14.00
2019-02-18T13:58:07.567Z,14.00
2019-02-18T14:00:36.058Z,13.90
2019-02-18T14:03:03.694Z,13.90
2019-02-18T14:05:31.342Z,13.90
2019-02-18T14:07:58.931Z,13.90
2019-02-18T14:10:26.695Z,13.90
2019-02-18T14:12:54.153Z,14.00
2019-02-18T14:15:21.727Z,14.00
2019-02-18T14:17:50.575Z,14.00
2019-02-18T14:20:27.165Z,14.20
2019-02-18T14:22:54.747Z,14.20
2019-02-18T14:25:22.343Z,14.20
2019-02-18T14:27:50.023Z,14.20
2019-02-18T14:30:17.688Z,14.20
2019-02-18T14:32:45.277Z,14.10
2019-02-18T14:35:13.343Z,14.10
2019-02-18T14:37:40.980Z,14.20
2019-02-18T14:40:11.283Z,14.10
2019-02-18T14:42:39.222Z,14.30
2019-02-18T14:45:07.200Z,14.20
2019-02-18T14:47:34.722Z,14.20
2019-02-18T14:50:03.354Z,14.20
2019-02-18T14:52:30.873Z,14.10
2019-02-18T14:54:58.423Z,14.10
2019-02-18T14:57:26.117Z,14.10
2019-02-18T14:59:53.678Z,14.10
2019-02-18T15:02:21.269Z,14.10
2019-02-18T15:04:49.245Z,14.10
2019-02-18T15:07:16.830Z,14.20
2019-02-18T15:09:44.415Z,14.20
2019-02-18T15:12:13.126Z,14.20
2019-02-18T15:14:40.752Z,14.20
2019-02-18T15:17:08.355Z,14.40
2019-02-18T15:19:36.776Z,14.40
2019-02-18T15:22:05.094Z,14.30
2019-02-18T15:24:32.816Z,14.30
2019-02-18T15:27:01.142Z,14.30
2019-02-18T15:29:29.265Z,14.20
2019-02-18T15:31:56.827Z,14.20
2019-02-18T15:34:25.165Z,14.10
2019-02-18T15:36:52.573Z,14.10
2019-02-18T15:39:21.280Z,14.10
2019-02-18T15:41:48.947Z,14.00
2019-02-18T15:44:16.482Z,14.00
2019-02-18T15:46:44.096Z,14.10
2019-02-18T15:49:11.788Z,14.10
2019-02-18T15:51:39.366Z,14.10
2019-02-18T15:54:06.952Z,14.00
2019-02-18T15:56:35.064Z,14.00
2019-02-18T15:59:02.674Z,14.00
2019-02-18T16:01:30.259Z,14.00
2019-02-18T16:03:57.890Z,14.00
2019-02-18T16:06:25.490Z,14.10
2019-02-18T16:08:53.073Z,14.10
2019-02-18T16:11:21.482Z,14.00
2019-02-18T16:13:49.055Z,14.00
2019-02-18T16:16:16.645Z,14.00
2019-02-18T16:18:44.311Z,14.00
2019-02-18T16:21:12.051Z,13.90
2019-02-18T16:23:45.546Z,13.80
2019-02-18T16:26:13.155Z,13.70
2019-02-18T16:28:40.758Z,13.70
2019-02-18T16:31:16.945Z,13.70
2019-02-18T16:33:45.151Z,13.60
2019-02-18T16:36:12.731Z,13.60
2019-02-18T16:38:40.321Z,13.50
2019-02-18T16:41:08.317Z,13.40
2019-02-18T16:43:35.900Z,13.40
2019-02-18T16:46:03.484Z,13.30
2019-02-18T16:48:31.119Z,13.30
2019-02-18T16:50:58.693Z,13.20
2019-02-18T16:53:26.276Z,13.20
2019-02-18T16:55:54.739Z,13.30
2019-02-18T16:58:22.317Z,13.30
2019-02-18T17:00:57.327Z,13.10
2019-02-18T17:03:18.322Z,13.10
2019-02-18T17:05:45.911Z,13.00
2019-02-18T17:08:13.505Z,13.00
2019-02-18T17:10:41.191Z,12.90
2019-02-18T17:13:08.825Z,12.80
2019-02-18T17:15:36.452Z,12.80
2019-02-18T17:18:04.115Z,12.70
2019-02-18T17:20:31.691Z,12.60
2019-02-18T17:22:59.287Z,12.40
2019-02-18T17:25:26.916Z,12.30
2019-02-18T17:27:55.290Z,12.00
2019-02-18T17:30:22.886Z,12.00
2019-02-18T17:32:50.522Z,11.90
2019-02-18T17:35:18.885Z,11.70
2019-02-18T17:37:46.477Z,11.70
2019-02-18T17:40:14.109Z,11.50
2019-02-18T17:42:41.696Z,11.60
2019-02-18T17:45:12.086Z,11.50
2019-02-18T17:47:39.722Z,11.30
2019-02-18T17:50:07.484Z,11.20
2019-02-18T17:52:35.064Z,11.00
2019-02-18T17:55:02.742Z,10.90
2019-02-18T17:57:30.383Z,10.80
2019-02-18T17:59:58.686Z,10.50
2019-02-18T18:02:26.763Z,10.50
2019-02-18T18:04:54.347Z,10.40
2019-02-18T18:07:22.812Z,10.20
2019-02-18T18:09:50.411Z,10.20
2019-02-18T18:12:18.037Z,10.10
2019-02-18T18:14:45.577Z,10.00
2019-02-18T18:17:13.252Z,9.90
2019-02-18T18:19:43.549Z,9.90
2019-02-18T18:22:11.084Z,9.90
2019-02-18T18:24:38.702Z,9.90
2019-02-18T18:27:06.290Z,9.80
2019-02-18T18:29:34.645Z,9.60
2019-02-18T18:32:02.281Z,9.60
2019-02-18T18:34:29.896Z,9.50
2019-02-18T18:36:57.441Z,9.60
2019-02-18T18:39:25.811Z,9.60
2019-02-18T18:41:53.385Z,9.50
2019-02-18T18:44:21.736Z,9.30
2019-02-18T18:46:49.335Z,9.30
2019-02-18T18:49:17.206Z,9.20
2019-02-18T18:51:45.556Z,9.00
2019-02-18T18:54:13.189Z,9.00
2019-02-18T18:56:40.767Z,9.10
2019-02-18T18:59:08.727Z,9.20
2019-02-18T19:01:37.189Z,9.10
2019-02-18T19:04:05.975Z,9.10
2019-02-18T19:06:34.877Z,9.10
2019-02-18T19:09:01.555Z,8.90
2019-02-18T19:11:30.238Z,8.80
2019-02-18T19:13:56.731Z,8.70
2019-02-18T19:16:24.440Z,8.60
2019-02-18T19:18:51.983Z,8.50
2019-02-18T19:21:19.566Z,8.30
2019-02-18T19:23:47.210Z,8.20
2019-02-18T19:26:14.811Z,8.10
2019-02-18T19:28:43.178Z,7.90
2019-02-18T19:31:11.866Z,7.90
2019-02-18T19:33:39.490Z,7.80
2019-02-18T19:36:07.842Z,7.80
2019-02-18T19:38:35.911Z,7.80
2019-02-18T19:41:03.494Z,7.70
2019-02-18T19:43:31.072Z,7.60
2019-02-18T19:45:59.576Z,7.50
2019-02-18T19:48:27.233Z,7.40
2019-02-18T19:50:54.826Z,7.40
2019-02-18T19:53:22.790Z,7.40
2019-02-18T19:55:51.168Z,7.30
2019-02-18T19:58:18.754Z,7.30
2019-02-18T20:00:46.439Z,7.20
2019-02-18T20:03:14.033Z,7.20
2019-02-18T20:05:41.607Z,7.20
2019-02-18T20:08:09.524Z,7.20
2019-02-18T20:10:37.841Z,7.30
2019-02-18T20:13:05.411Z,7.30
2019-02-18T20:15:33.807Z,7.20
2019-02-18T20:18:01.392Z,7.20
2019-02-18T20:20:29.080Z,7.10
2019-02-18T20:22:57.867Z,7.00
2019-02-18T20:25:26.174Z,6.90
2019-02-18T20:27:53.771Z,6.90
2019-02-18T20:30:21.441Z,6.80
2019-02-18T20:32:49.006Z,6.80
2019-02-18T20:35:16.598Z,6.70
2019-02-18T20:37:44.705Z,6.70
2019-02-18T20:40:12.307Z,6.60
2019-02-18T20:42:39.886Z,6.50
2019-02-18T20:45:07.505Z,6.50
2019-02-18T20:47:35.095Z,6.50
2019-02-18T20:50:02.710Z,6.40
2019-02-18T20:52:30.350Z,6.40
2019-02-18T20:54:57.933Z,6.30
2019-02-18T20:57:26.198Z,6.50
2019-02-18T20:59:53.828Z,6.40
2019-02-18T21:02:24.317Z,6.40
2019-02-18T21:04:51.928Z,6.30
2019-02-18T21:07:19.520Z,6.20
2019-02-18T21:09:47.095Z,6.20
2019-02-18T21:12:19.952Z,6.10
2019-02-18T21:14:43.134Z,6.00
2019-02-18T21:17:10.753Z,5.90
2019-02-18T21:19:40.808Z,5.90
2019-02-18T21:22:08.507Z,6.00
2019-02-18T21:24:36.093Z,6.10
2019-02-18T21:27:03.671Z,6.00
2019-02-18T21:29:31.348Z,5.90
2019-02-18T21:31:59.025Z,5.90
2019-02-18T21:34:26.574Z,5.80
2019-02-18T21:36:54.191Z,5.70
2019-02-18T21:39:21.806Z,5.60
2019-02-18T21:41:49.399Z,5.60
2019-02-18T21:44:25.407Z,5.50
2019-02-18T21:46:47.668Z,5.40
2019-02-18T21:49:15.738Z,5.30
2019-02-18T21:51:43.372Z,5.20
2019-02-18T21:54:11.008Z,5.10
2019-02-18T21:56:39.353Z,5.10
2019-02-18T21:59:06.977Z,5.00
2019-02-18T22:01:34.554Z,5.00
2019-02-18T22:04:02.131Z,4.90
2019-02-18T22:06:29.740Z,4.90
2019-02-18T22:08:57.332Z,4.80
2019-02-18T22:11:24.937Z,4.90
2019-02-18T22:13:52.933Z,5.00
2019-02-18T22:16:20.488Z,5.10
2019-02-18T22:18:48.995Z,5.20
2019-02-18T22:21:16.633Z,5.20
2019-02-18T22:23:44.209Z,5.20
2019-02-18T22:26:11.867Z,5.10
2019-02-18T22:28:39.483Z,5.00
2019-02-18T22:31:07.067Z,4.90
2019-02-18T22:33:34.663Z,4.80
2019-02-18T22:36:02.287Z,4.80
2019-02-18T22:38:29.873Z,4.70
2019-02-18T22:40:57.452Z,4.60
2019-02-18T22:43:25.070Z,4.50
2019-02-18T22:45:52.671Z,4.50
2019-02-18T22:48:20.249Z,4.40
2019-02-18T22:50:47.874Z,4.30
2019-02-18T22:53:16.225Z,4.30
2019-02-18T22:55:43.807Z,4.30
2019-02-18T22:58:12.493Z,4.20
2019-02-18T23:00:55.082Z,4.20
2019-02-18T23:03:22.711Z,4.20
2019-02-18T23:05:50.294Z,4.20
2019-02-18T23:08:17.873Z,4.10
2019-02-18T23:10:45.487Z,4.10
2019-02-18T23:13:13.072Z,4.10
2019-02-18T23:15:40.664Z,4.10
2019-02-18T23:18:08.734Z,4.10
2019-02-18T23:20:36.322Z,4.00
2019-02-18T23:23:04.677Z,4.40
2019-02-18T23:25:32.291Z,4.30
2019-02-18T23:27:59.872Z,4.30
2019-02-18T23:30:27.521Z,4.40
2019-02-18T23:32:55.138Z,4.40
2019-02-18T23:35:22.718Z,4.30
2019-02-18T23:37:51.065Z,4.20
2019-02-18T23:40:18.687Z,4.10
2019-02-18T23:42:46.269Z,4.10
2019-02-18T23:45:13.864Z,4.10
2019-02-18T23:47:41.490Z,4.00
2019-02-18T23:50:09.070Z,3.90
2019-02-18T23:52:36.654Z,3.90
2019-02-18T23:55:05.036Z,3.70
2019-02-18T23:57:33.380Z,3.70
